Terminal Aerodrome Forecast
Issued by NWS

Home | Current Version | Previous Version | Text Only | Print | Product List | Glossary On
Versions: 1 2 3 4 5 6 7 8 9 10 11 12 13 14 15 16 17 18 19 20 21 22
218
FTUS42 KFFC 052145 AAB
TAFRYY
TAF AMD
KRYY 052145Z 0522/0618 31016G26KT P6SM VCSH BKN060
     FM060000 31013G23KT P6SM SCT060 SCT250
     FM060400 31008KT P6SM FEW060
     FM061300 32014G24KT P6SM SKC=

USA.gov is the U.S. government's official web portal to all federal, state and local government web resources and services.